Gulf Hills, Mississippi
Current Conditions -  °F | °C
As of 6:13 AM on Sunday 23 Nov 2014 (Local Time) from KBIX Reporting Station
Haze Haze  
Wind Chill: 64°   Ceiling: Unl
Heat Index: 64°   Visibility: 5mi
Dew Point: 64°   Wind: 1mph
Humidity: 100%   Direction: NA
Pressure: 29.75"   Gusts: NA
Location:  30.418°N, 88.7558°W
Report Text: KBIX 231213Z AUTO VRB01KT 5SM R03/4500FT BR SCT005 18/18 A2975 RMK AO2 VIS 2 RWY21
Loading
Personal Weather Stations






























Interactive Weather Map New forecast layout! Learn more

10-Day Weather Forecast

Advertisements
Track Severe Weather on mobile